createdAt,value
2023-04-15T00:04:42.020Z,0.73
2023-04-15T00:09:44.817Z,0.80
2023-04-15T00:14:46.985Z,0.60
2023-04-15T00:19:49.079Z,0.73
2023-04-15T00:24:51.486Z,0.65
2023-04-15T00:29:53.542Z,0.60
2023-04-15T00:34:56.477Z,0.88
2023-04-15T00:39:58.957Z,0.68
2023-04-15T00:45:01.334Z,0.50
2023-04-15T00:50:05.352Z,0.80
2023-04-15T00:55:08.257Z,0.60
2023-04-15T01:00:12.141Z,0.50
2023-04-15T01:05:17.318Z,0.57
2023-04-15T01:10:19.627Z,0.40
2023-04-15T01:15:21.981Z,0.50
2023-04-15T01:20:24.569Z,0.60
2023-04-15T01:25:35.524Z,0.40
2023-04-15T01:30:38.093Z,0.63
2023-04-15T01:35:40.261Z,0.55
2023-04-15T01:40:43.411Z,0.50
2023-04-15T01:45:47.160Z,0.60
2023-04-15T01:50:50.908Z,0.88
2023-04-15T01:55:54.261Z,0.47
2023-04-15T02:00:57.688Z,0.52
2023-04-15T02:06:01.159Z,0.60
2023-04-15T02:11:05.358Z,0.40
2023-04-15T02:16:19.263Z,0.98
2023-04-15T02:21:22.773Z,0.80
2023-04-15T02:26:26.091Z,0.60
2023-04-15T02:31:34.136Z,0.60
2023-04-15T02:36:37.714Z,0.60
2023-04-15T02:41:43.916Z,0.50
2023-04-15T02:46:51.026Z,0.98
2023-04-15T02:51:55.502Z,0.68
2023-04-15T02:56:58.876Z,0.52
2023-04-15T03:02:02.266Z,0.98
2023-04-15T03:07:05.787Z,0.50
2023-04-15T03:12:09.575Z,0.57
2023-04-15T03:17:12.926Z,0.98
2023-04-15T03:22:16.349Z,0.52
2023-04-15T03:27:19.873Z,0.63
2023-04-15T03:32:24.041Z,0.50
2023-04-15T03:37:27.632Z,0.50
2023-04-15T03:42:31.023Z,0.93
2023-04-15T03:47:35.452Z,0.70
2023-04-15T03:52:38.794Z,0.68
2023-04-15T03:57:42.112Z,0.50
2023-04-15T04:02:46.282Z,0.50
2023-04-15T04:07:49.762Z,0.75
2023-04-15T04:12:53.059Z,0.70
2023-04-15T04:17:56.572Z,0.70
2023-04-15T04:23:00.099Z,0.50
2023-04-15T04:28:03.957Z,0.82
2023-04-15T04:33:07.676Z,0.68
2023-04-15T04:38:11.212Z,0.60
2023-04-15T04:43:16.205Z,0.73
2023-04-15T04:48:20.028Z,0.98
2023-04-15T04:53:23.458Z,0.82
2023-04-15T04:58:27.398Z,0.65
2023-04-15T05:03:30.985Z,0.63
2023-04-15T05:08:34.621Z,1.85
2023-04-15T05:13:38.902Z,0.80
2023-04-15T05:18:42.210Z,0.60
2023-04-15T05:23:45.589Z,0.80
2023-04-15T05:28:49.750Z,0.50
2023-04-15T05:33:53.104Z,0.60
2023-04-15T05:38:56.524Z,2.80
2023-04-15T05:43:59.839Z,0.75
2023-04-15T05:49:03.492Z,0.80
2023-04-15T05:54:07.062Z,0.93
2023-04-15T05:59:11.692Z,1.00
2023-04-15T06:04:15.582Z,0.70
2023-04-15T06:09:19.034Z,0.75
2023-04-15T06:14:22.405Z,0.70
2023-04-15T06:19:26.276Z,1.50
2023-04-15T06:24:29.642Z,0.93
2023-04-15T06:29:33.018Z,1.42
2023-04-15T06:34:36.469Z,0.70
2023-04-15T06:39:40.312Z,4.38
2023-04-15T06:44:43.861Z,0.80
2023-04-15T06:49:47.147Z,0.80
2023-04-15T06:54:50.662Z,0.70
2023-04-15T06:59:54.739Z,1.20
2023-04-15T07:04:58.097Z,1.20
2023-04-15T07:10:03.446Z,0.90
2023-04-15T07:15:07.311Z,0.63
2023-04-15T07:20:11.125Z,0.90
2023-04-15T07:25:14.439Z,1.02
2023-04-15T07:30:18.064Z,1.10
2023-04-15T07:35:21.581Z,2.28
2023-04-15T07:40:24.975Z,0.95
2023-04-15T07:45:28.672Z,1.00
2023-04-15T07:50:32.134Z,1.10
2023-04-15T07:55:35.509Z,1.10
2023-04-15T08:00:39.196Z,0.70
2023-04-15T08:05:42.566Z,0.80
2023-04-15T08:10:46.029Z,1.10
2023-04-15T08:16:19.086Z,1.10
2023-04-15T08:21:24.013Z,0.90
2023-04-15T08:26:27.346Z,0.93
2023-04-15T08:31:30.836Z,0.80
2023-04-15T08:36:34.189Z,0.90
2023-04-15T08:41:46.455Z,1.10
2023-04-15T08:46:50.245Z,0.98
2023-04-15T08:51:53.747Z,0.85
2023-04-15T08:56:58.819Z,0.68
2023-04-15T09:02:04.056Z,1.40
2023-04-15T09:07:07.541Z,1.05
2023-04-15T09:12:12.327Z,1.02
2023-04-15T09:17:19.612Z,0.98
2023-04-15T09:22:22.974Z,0.70
2023-04-15T09:27:26.707Z,1.95
2023-04-15T09:32:30.223Z,1.38
2023-04-15T09:37:37.044Z,1.02
2023-04-15T09:42:56.503Z,2.40
2023-04-15T09:48:14.562Z,1.20
2023-04-15T09:53:20.479Z,1.50
2023-04-15T09:58:29.498Z,1.65
2023-04-15T10:03:36.972Z,1.10
2023-04-15T10:08:41.805Z,2.05
2023-04-15T10:13:47.333Z,2.92
2023-04-15T10:18:56.100Z,1.27
2023-04-15T10:24:03.280Z,1.23
2023-04-15T10:29:07.098Z,1.00
2023-04-15T10:34:11.427Z,1.33
2023-04-15T10:39:33.337Z,2.13
2023-04-15T10:44:38.942Z,1.17
2023-04-15T10:49:50.647Z,1.50
2023-04-15T10:55:16.567Z,2.03
2023-04-15T11:00:24.622Z,2.10
2023-04-15T11:05:43.300Z,1.10
2023-04-15T11:10:46.517Z,1.42
2023-04-15T11:15:50.173Z,1.23
2023-04-15T11:20:57.555Z,1.30
2023-04-15T11:26:03.916Z,1.13
2023-04-15T11:31:16.537Z,1.10
2023-04-15T11:36:19.892Z,1.50
2023-04-15T11:41:23.907Z,1.38
2023-04-15T11:46:31.941Z,1.90
2023-04-15T11:51:36.150Z,1.20
2023-04-15T11:56:38.518Z,1.33
2023-04-15T12:01:43.767Z,1.08
2023-04-15T12:06:46.323Z,0.93
2023-04-15T12:11:55.515Z,2.45
2023-04-15T12:17:01.550Z,1.45
2023-04-15T12:22:06.704Z,1.42
2023-04-15T12:27:17.152Z,1.17
2023-04-15T12:32:22.886Z,1.23
2023-04-15T12:37:26.796Z,1.30
2023-04-15T12:42:29.625Z,1.60
2023-04-15T12:47:31.816Z,1.27
2023-04-15T12:52:33.946Z,1.20
2023-04-15T12:57:36.178Z,1.45
2023-04-15T13:02:38.553Z,2.10
2023-04-15T13:07:42.600Z,1.70
2023-04-15T13:12:46.979Z,1.60
2023-04-15T13:17:50.699Z,1.40
2023-04-15T13:22:54.212Z,1.70
2023-04-15T13:27:57.727Z,1.98
2023-04-15T13:33:00.191Z,1.70
2023-04-15T13:38:02.438Z,1.95
2023-04-15T13:43:04.937Z,1.42
2023-04-15T13:48:07.350Z,1.98
2023-04-15T13:53:09.482Z,2.45
2023-04-15T13:58:11.874Z,1.95
2023-04-15T14:03:14.108Z,1.20
2023-04-15T14:08:16.403Z,1.75
2023-04-15T14:13:19.782Z,2.45
2023-04-15T14:18:21.964Z,2.80
2023-04-15T14:28:26.225Z,1.98
2023-04-15T14:33:28.397Z,2.45
2023-04-15T14:43:33.421Z,2.22
2023-04-15T14:48:35.838Z,1.80
2023-04-15T14:53:38.052Z,1.98
2023-04-15T15:03:42.381Z,1.90
2023-04-15T15:08:44.676Z,2.20
2023-04-15T15:13:47.837Z,1.55
2023-04-15T15:18:51.430Z,1.63
2023-04-15T15:23:53.592Z,2.08
2023-04-15T15:28:55.734Z,1.80
2023-04-15T15:39:00.385Z,6.63
2023-04-15T15:44:02.583Z,2.28
2023-04-15T15:49:05.066Z,2.30
2023-04-15T15:54:07.366Z,2.58
2023-04-15T16:04:11.766Z,1.85
2023-04-15T16:09:14.231Z,2.42
2023-04-15T16:14:16.394Z,2.75
2023-04-15T16:19:18.588Z,2.75
2023-04-15T16:24:21.197Z,2.35
2023-04-15T16:34:25.552Z,2.53
2023-04-15T16:39:27.707Z,2.30
2023-04-15T16:54:35.867Z,1.50
2023-04-15T16:59:38.321Z,2.45
2023-04-15T17:04:41.865Z,2.00
2023-04-15T17:09:44.741Z,3.13
2023-04-15T17:14:46.954Z,2.25
2023-04-15T17:19:50.023Z,2.40
2023-04-15T17:24:54.334Z,2.13
2023-04-15T17:29:58.150Z,2.50
2023-04-15T17:35:20.443Z,3.28
2023-04-15T17:46:05.454Z,2.33
2023-04-15T17:51:28.186Z,2.63
2023-04-15T17:57:03.337Z,2.95
2023-04-15T18:02:25.808Z,2.70
2023-04-15T18:07:48.077Z,2.22
2023-04-15T18:13:10.358Z,2.35
2023-04-15T18:23:35.458Z,2.67
2023-04-15T18:33:42.347Z,3.33
2023-04-15T18:44:39.273Z,2.58
2023-04-15T18:57:42.595Z,3.22
2023-04-15T19:02:46.793Z,2.92
2023-04-15T19:07:51.238Z,2.47
2023-04-15T19:12:53.359Z,5.40
2023-04-15T19:17:55.702Z,2.75
2023-04-15T19:22:57.863Z,2.53
2023-04-15T19:33:02.300Z,2.78
2023-04-15T19:38:05.125Z,7.43
2023-04-15T19:43:07.281Z,2.33
2023-04-15T19:48:09.468Z,2.63
2023-04-15T19:53:11.664Z,2.38
2023-04-15T19:58:13.830Z,2.35
2023-04-15T20:03:16.397Z,2.50
2023-04-15T20:08:19.013Z,3.08
2023-04-15T20:13:21.138Z,2.88
2023-04-15T20:18:23.376Z,2.45
2023-04-15T20:23:25.721Z,2.70
2023-04-15T20:28:27.890Z,2.45
2023-04-15T20:38:32.085Z,2.55
2023-04-15T20:43:34.164Z,2.63
2023-04-15T20:53:38.261Z,2.92
2023-04-15T20:58:40.455Z,3.10
2023-04-15T21:03:42.836Z,3.63
2023-04-15T21:08:45.041Z,3.08
2023-04-15T21:13:47.156Z,2.92
2023-04-15T21:18:49.379Z,3.15
2023-04-15T21:23:51.550Z,3.45
2023-04-15T21:28:53.709Z,3.58
2023-04-15T21:33:56.130Z,3.35
2023-04-15T21:38:58.294Z,3.70
2023-04-15T21:44:00.515Z,3.85
2023-04-15T21:54:04.572Z,4.30
2023-04-15T21:59:06.970Z,4.25
2023-04-15T22:04:11.194Z,3.38
2023-04-15T22:09:14.316Z,3.88
2023-04-15T22:14:16.891Z,3.35
2023-04-15T22:19:19.104Z,3.45
2023-04-15T22:24:32.746Z,3.80
2023-04-15T22:29:41.871Z,3.95
2023-04-15T22:34:44.044Z,3.50
2023-04-15T22:39:46.538Z,3.67
2023-04-15T22:44:50.071Z,3.90
2023-04-15T22:49:52.188Z,3.90
2023-04-15T22:54:54.329Z,4.65
2023-04-15T22:59:56.632Z,5.30
2023-04-15T23:04:58.839Z,5.32
2023-04-15T23:10:01.514Z,4.50
2023-04-15T23:15:04.139Z,6.15
2023-04-15T23:20:09.498Z,4.20
2023-04-15T23:25:11.599Z,4.53
2023-04-15T23:30:13.813Z,3.47
2023-04-15T23:35:16.764Z,3.47
2023-04-15T23:40:18.910Z,3.60
2023-04-15T23:45:21.046Z,3.97
2023-04-15T23:50:23.329Z,3.33
2023-04-15T23:55:25.615Z,3.90
